createdAt,value
2018-06-10T00:04:36.943Z,19.70
2018-06-10T00:09:31.498Z,19.80
2018-06-10T00:14:26.040Z,19.60
2018-06-10T00:19:20.606Z,19.60
2018-06-10T00:24:15.163Z,19.50
2018-06-10T00:29:14.921Z,19.50
2018-06-10T00:34:09.479Z,19.40
2018-06-10T00:39:04.167Z,19.40
2018-06-10T00:43:58.715Z,19.40
2018-06-10T00:48:53.243Z,19.40
2018-06-10T00:53:47.782Z,19.40
2018-06-10T00:58:42.306Z,19.40
2018-06-10T01:03:36.876Z,19.30
2018-06-10T01:08:31.470Z,19.20
2018-06-10T01:13:26.007Z,19.20
2018-06-10T01:18:20.538Z,19.20
2018-06-10T01:23:15.093Z,19.10
2018-06-10T01:28:09.658Z,19.10
2018-06-10T01:33:04.190Z,18.90
2018-06-10T01:37:58.734Z,18.80
2018-06-10T01:42:53.254Z,18.80
2018-06-10T01:47:47.795Z,18.70
2018-06-10T01:52:42.374Z,18.70
2018-06-10T01:57:36.901Z,18.70
2018-06-10T02:02:31.470Z,18.60
2018-06-10T02:07:26.039Z,18.70
2018-06-10T02:12:20.590Z,18.50
2018-06-10T02:17:15.162Z,18.50
2018-06-10T02:22:09.710Z,18.30
2018-06-10T02:27:04.248Z,18.20
2018-06-10T02:31:58.805Z,18.10
2018-06-10T02:36:53.376Z,18.00
2018-06-10T02:41:47.936Z,17.90
2018-06-10T02:46:42.463Z,18.00
2018-06-10T02:51:36.996Z,18.00
2018-06-10T02:56:31.622Z,17.80
2018-06-10T03:01:26.141Z,17.80
2018-06-10T03:06:20.687Z,17.80
2018-06-10T03:11:15.218Z,17.60
2018-06-10T03:16:09.739Z,17.50
2018-06-10T03:21:04.274Z,17.60
2018-06-10T03:25:58.808Z,17.70
2018-06-10T03:30:53.351Z,17.70
2018-06-10T03:35:47.911Z,17.60
2018-06-10T03:40:42.523Z,17.60
2018-06-10T03:45:37.054Z,17.70
2018-06-10T03:50:31.617Z,17.70
2018-06-10T03:55:26.155Z,17.60
2018-06-10T04:00:20.715Z,17.50
2018-06-10T04:05:15.282Z,17.40
2018-06-10T04:10:09.834Z,17.40
2018-06-10T04:15:04.433Z,17.40
2018-06-10T04:19:59.014Z,17.40
2018-06-10T04:24:53.511Z,17.50
2018-06-10T04:29:48.058Z,17.70
2018-06-10T04:34:42.585Z,17.90
2018-06-10T04:39:37.140Z,18.10
2018-06-10T04:44:31.669Z,18.40
2018-06-10T04:49:26.216Z,18.70
2018-06-10T04:54:20.749Z,19.10
2018-06-10T04:59:15.268Z,19.50
2018-06-10T05:04:09.822Z,19.80
2018-06-10T05:09:05.732Z,20.10
2018-06-10T05:14:00.272Z,20.50
2018-06-10T05:18:54.830Z,20.80
2018-06-10T05:23:49.368Z,21.10
2018-06-10T05:28:43.925Z,21.60
2018-06-10T05:38:32.794Z,21.90
2018-06-10T05:43:27.347Z,21.90
2018-06-10T05:48:21.879Z,22.00
2018-06-10T05:53:16.450Z,22.30
2018-06-10T05:58:11.015Z,22.30
2018-06-10T06:03:05.629Z,21.90
2018-06-10T06:08:00.184Z,21.70
2018-06-10T06:17:48.971Z,22.00
2018-06-10T06:22:43.539Z,21.90
2018-06-10T06:27:38.090Z,22.10
2018-06-10T06:32:33.731Z,22.20
2018-06-10T06:37:28.377Z,22.60
2018-06-10T06:42:22.899Z,22.80
2018-06-10T06:47:17.468Z,22.60
2018-06-10T06:52:12.062Z,22.70
2018-06-10T06:57:06.646Z,22.80
2018-06-10T07:02:01.182Z,22.80
2018-06-10T07:06:55.727Z,22.70
2018-06-10T07:11:50.344Z,22.20
2018-06-10T07:16:44.940Z,21.60
2018-06-10T07:21:39.479Z,21.30
2018-06-10T07:26:34.027Z,21.30
2018-06-10T07:31:29.438Z,22.20
2018-06-10T07:36:24.027Z,22.90
2018-06-10T07:46:12.832Z,23.60
2018-06-10T07:56:01.615Z,24.20
2018-06-10T08:00:56.160Z,24.60
2018-06-10T08:05:50.770Z,24.90
2018-06-10T08:10:45.327Z,25.10
2018-06-10T08:15:39.878Z,25.30
2018-06-10T08:20:34.443Z,25.70
2018-06-10T08:25:29.021Z,25.80
2018-06-10T08:30:23.576Z,26.00
2018-06-10T08:35:18.135Z,26.10
2018-06-10T08:40:12.714Z,25.90
2018-06-10T08:50:01.579Z,26.40
2018-06-10T08:54:56.143Z,26.60
2018-06-10T08:59:50.710Z,26.80
2018-06-10T09:04:45.327Z,27.10
2018-06-10T09:09:39.907Z,27.00
2018-06-10T09:14:34.455Z,26.80
2018-06-10T09:19:29.043Z,26.80
2018-06-10T09:24:23.654Z,27.20
2018-06-10T09:29:18.378Z,27.20
2018-06-10T09:34:12.978Z,27.00
2018-06-10T09:39:09.078Z,27.00
2018-06-10T09:44:04.502Z,27.10
2018-06-10T09:48:59.062Z,27.40
2018-06-10T09:53:53.763Z,27.70
2018-06-10T09:58:48.422Z,27.80
2018-06-10T10:03:43.031Z,28.10
2018-06-10T10:08:37.577Z,27.90
2018-06-10T10:13:32.169Z,27.80
2018-06-10T10:18:26.772Z,27.90
2018-06-10T10:23:21.337Z,28.20
2018-06-10T10:28:15.943Z,28.30
2018-06-10T10:33:10.520Z,28.30
2018-06-10T10:42:59.408Z,28.80
2018-06-10T10:47:53.988Z,28.70
2018-06-10T10:52:48.537Z,28.70
2018-06-10T10:57:43.170Z,29.00
2018-06-10T11:02:38.409Z,28.80
2018-06-10T11:07:32.957Z,29.00
2018-06-10T11:12:27.682Z,29.30
2018-06-10T11:17:22.255Z,29.40
2018-06-10T11:22:16.836Z,29.60
2018-06-10T11:27:11.465Z,29.60
2018-06-10T11:32:06.530Z,29.80
2018-06-10T11:37:01.111Z,29.80
2018-06-10T11:41:55.688Z,29.90
2018-06-10T11:46:50.263Z,30.00
2018-06-10T11:56:39.097Z,30.00
2018-06-10T12:01:33.659Z,30.20
2018-06-10T12:06:28.316Z,29.60
2018-06-10T12:11:22.847Z,29.50
2018-06-10T12:16:17.450Z,29.80
2018-06-10T12:21:12.004Z,29.80
2018-06-10T12:26:06.604Z,29.10
2018-06-10T12:31:01.203Z,28.70
2018-06-10T12:35:55.834Z,28.50
2018-06-10T12:40:50.448Z,28.30
2018-06-10T12:45:45.021Z,28.40
2018-06-10T12:50:39.571Z,28.50
2018-06-10T12:55:34.183Z,28.60
2018-06-10T13:00:28.818Z,28.70
2018-06-10T13:05:23.350Z,28.80
2018-06-10T13:10:17.963Z,28.60
2018-06-10T13:15:12.526Z,28.80
2018-06-10T13:20:07.166Z,28.70
2018-06-10T13:25:01.742Z,28.70
2018-06-10T13:29:56.299Z,28.40
2018-06-10T13:34:50.880Z,28.10
2018-06-10T13:39:45.438Z,28.00
2018-06-10T13:44:40.019Z,28.20
2018-06-10T13:54:29.532Z,28.50
2018-06-10T13:59:24.093Z,29.00
2018-06-10T14:04:18.642Z,29.00
2018-06-10T14:09:13.190Z,29.20
2018-06-10T14:14:07.754Z,29.40
2018-06-10T14:19:02.299Z,29.10
2018-06-10T14:23:56.868Z,28.80
2018-06-10T14:28:51.418Z,28.50
2018-06-10T14:33:45.988Z,28.50
2018-06-10T14:38:40.590Z,28.20
2018-06-10T14:43:35.230Z,28.30
2018-06-10T14:53:24.019Z,28.30
2018-06-10T14:58:18.608Z,28.10
2018-06-10T15:03:13.158Z,27.80
2018-06-10T15:08:07.742Z,27.70
2018-06-10T15:13:02.305Z,27.80
2018-06-10T15:17:56.835Z,27.90
2018-06-10T15:22:51.465Z,27.90
2018-06-10T15:27:46.042Z,28.30
2018-06-10T15:32:40.597Z,28.50
2018-06-10T15:37:35.196Z,28.60
2018-06-10T15:42:29.768Z,28.70
2018-06-10T15:47:24.319Z,28.70
2018-06-10T15:52:18.908Z,28.20
2018-06-10T15:57:13.491Z,27.90
2018-06-10T16:02:08.091Z,27.80
2018-06-10T16:07:02.650Z,27.80
2018-06-10T16:11:57.187Z,27.80
2018-06-10T16:16:51.787Z,27.80
2018-06-10T16:21:46.347Z,27.70
2018-06-10T16:26:40.929Z,27.60
2018-06-10T16:31:35.540Z,27.50
2018-06-10T16:36:30.158Z,27.40
2018-06-10T16:41:24.692Z,27.30
2018-06-10T16:46:19.264Z,26.80
2018-06-10T16:51:13.872Z,26.50
2018-06-10T16:56:08.436Z,26.30
2018-06-10T17:01:03.030Z,26.50
2018-06-10T17:05:57.591Z,26.80
2018-06-10T17:10:52.227Z,27.00
2018-06-10T17:15:46.825Z,27.00
2018-06-10T17:20:41.426Z,26.90
2018-06-10T17:30:30.278Z,26.60
2018-06-10T17:35:24.878Z,26.40
2018-06-10T17:40:19.494Z,26.10
2018-06-10T17:45:14.079Z,25.90
2018-06-10T17:50:08.717Z,25.80
2018-06-10T17:55:03.374Z,25.70
2018-06-10T18:04:52.220Z,25.50
2018-06-10T18:09:46.808Z,25.60
2018-06-10T18:14:41.431Z,25.70
2018-06-10T18:19:36.053Z,25.80
2018-06-10T18:24:30.605Z,25.80
2018-06-10T18:29:25.145Z,25.70
2018-06-10T18:34:19.720Z,25.60
2018-06-10T18:44:08.688Z,25.10
2018-06-10T18:49:03.297Z,25.00
2018-06-10T18:53:57.930Z,24.80
2018-06-10T18:58:52.573Z,24.50
2018-06-10T19:03:47.179Z,24.30
2018-06-10T19:08:41.779Z,24.20
2018-06-10T19:13:36.374Z,24.00
2018-06-10T19:18:30.952Z,23.80
2018-06-10T19:23:25.591Z,23.70
2018-06-10T19:28:20.220Z,23.60
2018-06-10T19:33:14.810Z,23.50
2018-06-10T19:38:09.385Z,23.30
2018-06-10T19:43:04.942Z,23.20
2018-06-10T19:47:59.575Z,23.10
2018-06-10T19:52:54.180Z,23.00
2018-06-10T19:57:48.824Z,22.90
2018-06-10T20:02:43.418Z,22.90
2018-06-10T20:07:38.042Z,22.90
2018-06-10T20:12:32.652Z,22.90
2018-06-10T20:17:27.281Z,22.90
2018-06-10T20:27:16.150Z,22.90
2018-06-10T20:32:10.734Z,22.90
2018-06-10T20:37:05.380Z,22.80
2018-06-10T20:41:59.998Z,22.80
2018-06-10T20:46:54.595Z,22.60
2018-06-10T20:51:49.185Z,22.60
2018-06-10T20:56:43.751Z,22.50
2018-06-10T21:01:38.347Z,22.40
2018-06-10T21:06:32.977Z,22.20
2018-06-10T21:11:27.593Z,22.00
2018-06-10T21:16:22.157Z,21.90
2018-06-10T21:21:16.720Z,21.90
2018-06-10T21:26:11.324Z,21.80
2018-06-10T21:31:05.891Z,21.70
2018-06-10T21:36:00.490Z,21.50
2018-06-10T21:40:55.080Z,21.50
2018-06-10T21:45:49.748Z,21.40
2018-06-10T21:50:44.304Z,21.30
2018-06-10T21:55:38.924Z,21.30
2018-06-10T22:00:33.476Z,21.30
2018-06-10T22:05:28.067Z,21.30
2018-06-10T22:10:22.642Z,21.30
2018-06-10T22:15:17.223Z,21.20
2018-06-10T22:20:11.818Z,21.10
2018-06-10T22:25:06.411Z,20.90
2018-06-10T22:30:00.982Z,20.80
2018-06-10T22:39:49.866Z,20.60
2018-06-10T22:44:44.421Z,20.50
2018-06-10T22:49:38.977Z,20.50
2018-06-10T22:54:44.058Z,20.50
2018-06-10T22:59:39.526Z,20.40
2018-06-10T23:04:34.107Z,20.40
2018-06-10T23:09:28.698Z,20.50
2018-06-10T23:14:23.229Z,20.30
2018-06-10T23:19:18.409Z,20.30
2018-06-10T23:24:13.021Z,20.20
2018-06-10T23:29:07.615Z,20.10
2018-06-10T23:34:02.463Z,20.00
2018-06-10T23:38:57.051Z,20.00
2018-06-10T23:43:51.570Z,20.10
2018-06-10T23:48:46.125Z,20.40
2018-06-10T23:53:40.681Z,20.10
2018-06-10T23:58:35.229Z,20.00
